Time;durP1;ratioP1;P1;durP2;ratioP2;P2;SDS_P1;SDS_P2;PMS_P1;PMS_P2;Temp;Humidity;BMP_temperature;BMP_pressure;BME280_temperature;BME280_humidity;BME280_pressure;Samples;Min_cycle;Max_cycle;Signal;HPM_P1;HPM_P2
2022/10/02 00:01:11;;;;;;;;;;;;;;;21.60;53.98;100158.19;5076286;28;19954;-87
2022/10/02 00:03:36;;;;;;;;;;;;;;;21.52;54.63;100172.28;5074811;28;19980;-87
2022/10/02 00:06:04;;;;;;;;;;;;;;;21.53;54.81;100173.91;5075334;28;19916;-87
2022/10/02 00:08:30;;;;;;;;;;;;;;;21.57;55.14;100171.53;5074593;28;19920;-87
2022/10/02 00:10:56;;;;;;;;;;;;;;;21.49;55.43;100172.75;5062690;28;19924;-87
2022/10/02 00:13:25;;;;;;;;;;;;;;;21.43;56.10;100165.53;5073519;28;19916;-87
2022/10/02 00:15:51;;;;;;;;;;;;;;;21.38;56.60;100165.41;5084180;28;19912;-87
2022/10/02 00:18:18;;;;;;;;;;;;;;;21.26;57.28;100163.53;5075140;28;20308;-87
2022/10/02 00:20:46;;;;;;;;;;;;;;;21.16;57.75;100163.31;5075416;28;20375;-88
2022/10/02 00:23:30;;;;;;;;;;;;;;;21.13;58.18;100155.63;5093155;28;20372;-88
2022/10/02 00:25:57;;;;;;;;;;;;;;;21.11;58.46;100146.84;5075122;28;20432;-87
2022/10/02 00:28:41;;;;;;;;;;;;;;;20.93;59.21;100152.47;5092955;28;20360;-87
2022/10/02 00:31:15;;;;;;;;;;;;;;;20.96;59.25;100146.53;5083071;28;19933;-87
2022/10/02 00:33:46;;;;;;;;;;;;;;;20.77;60.08;100167.72;5073502;28;19920;-87
2022/10/02 00:36:14;;;;;;;;;;;;;;;20.76;60.33;100183.25;5092517;28;20360;-86
2022/10/02 00:38:43;;;;;;;;;;;;;;;20.65;60.71;100167.75;5095304;28;19979;-86
2022/10/02 00:41:18;;;;;;;;;;;;;;;20.62;61.10;100171.75;5076848;28;19920;-86
2022/10/02 00:44:01;;;;;;;;;;;;;;;20.46;61.59;100175.19;5092429;28;19920;-87
2022/10/02 00:46:38;;;;;;;;;;;;;;;20.58;61.46;100177.94;5092337;28;19920;-86
2022/10/02 00:49:19;;;;;;;;;;;;;;;20.48;61.56;100177.69;5091685;28;19916;-87
2022/10/02 00:51:47;;;;;;;;;;;;;;;20.44;61.88;100191.81;5073191;28;19912;-86
2022/10/02 00:54:36;;;;;;;;;;;;;;;20.46;61.82;100194.28;5091685;28;20367;-86
2022/10/02 00:57:04;;;;;;;;;;;;;;;20.23;62.12;100209.63;5082582;28;19921;-87
2022/10/02 00:59:45;;;;;;;;;;;;;;;20.40;61.70;100217.94;5056785;28;19923;-87
2022/10/02 01:02:12;;;;;;;;;;;;;;;20.24;62.08;100194.06;5090868;28;19941;-87
2022/10/02 01:04:38;;;;;;;;;;;;;;;20.53;61.68;100213.28;5074171;28;19919;-86
2022/10/02 01:07:03;;;;;;;;;;;;;;;20.59;61.56;100217.84;5091421;28;19912;-85
2022/10/02 01:09:29;;;;;;;;;;;;;;;20.41;61.63;100225.03;5056904;28;19912;-87
2022/10/02 01:11:54;;;;;;;;;;;;;;;20.40;62.10;100212.47;5073427;28;19920;-86
2022/10/02 01:14:19;;;;;;;;;;;;;;;20.39;61.98;100223.63;5091242;28;20386;-86
2022/10/02 01:16:45;;;;;;;;;;;;;;;20.24;62.67;100229.53;5090415;28;19916;-87
2022/10/02 01:19:15;;;;;;;;;;;;;;;20.27;62.69;100230.97;5097030;28;19920;-86
2022/10/02 01:21:41;;;;;;;;;;;;;;;20.32;62.66;100239.28;5072683;28;19920;-86
2022/10/02 01:24:21;;;;;;;;;;;;;;;20.28;62.98;100244.38;5092098;28;19912;-85
2022/10/02 01:26:46;;;;;;;;;;;;;;;20.17;63.52;100247.91;5074102;28;19912;-86
2022/10/02 01:29:12;;;;;;;;;;;;;;;20.13;63.75;100246.72;5073943;28;19922;-85
2022/10/02 01:31:37;;;;;;;;;;;;;;;20.09;64.32;100240.06;5073159;28;19974;-86
2022/10/02 01:34:02;;;;;;;;;;;;;;;20.06;64.40;100225.00;5073857;28;19961;-86
2022/10/02 01:36:28;;;;;;;;;;;;;;;20.11;64.18;100218.84;5055033;28;20388;-86
2022/10/02 01:38:54;;;;;;;;;;;;;;;19.99;64.80;100229.72;5077936;28;20313;-86
2022/10/02 01:41:19;;;;;;;;;;;;;;;19.86;65.52;100238.13;5077680;28;19926;-86
2022/10/02 01:43:46;;;;;;;;;;;;;;;19.90;65.32;100242.88;5098358;28;20584;-87
2022/10/02 01:46:20;;;;;;;;;;;;;;;19.87;65.98;100248.78;5101905;28;19920;-86
2022/10/02 01:49:01;;;;;;;;;;;;;;;19.78;66.33;100277.44;5067169;28;19963;-86
2022/10/02 01:51:35;;;;;;;;;;;;;;;19.65;66.90;100261.25;5099023;28;19916;-85
2022/10/02 01:54:14;;;;;;;;;;;;;;;19.60;67.20;100270.13;5077313;28;19977;-86
2022/10/02 01:57:06;;;;;;;;;;;;;;;19.53;67.53;100256.56;5074982;28;19931;-87
2022/10/02 01:59:50;;;;;;;;;;;;;;;19.47;67.77;100243.84;5051381;28;19920;-87
2022/10/02 02:02:17;;;;;;;;;;;;;;;19.54;67.73;100244.59;5094911;28;19915;-87
2022/10/02 02:05:01;;;;;;;;;;;;;;;19.49;67.72;100251.81;5094953;28;19915;-86
2022/10/02 02:07:34;;;;;;;;;;;;;;;19.58;67.68;100224.00;5094368;28;20394;-86
2022/10/02 02:10:12;;;;;;;;;;;;;;;19.56;67.70;100217.94;5093848;28;19916;-86
2022/10/02 02:12:40;;;;;;;;;;;;;;;19.60;67.62;100213.69;5094550;28;19916;-87
2022/10/02 02:15:06;;;;;;;;;;;;;;;19.71;67.31;100195.72;5076372;28;19920;-86
2022/10/02 02:18:04;;;;;;;;;;;;;;;19.79;67.13;100200.03;5075413;28;20421;-87
2022/10/02 02:20:31;;;;;;;;;;;;;;;19.79;67.16;100197.31;5047857;28;19969;-86
2022/10/02 02:22:58;;;;;;;;;;;;;;;19.73;67.32;100171.78;5076360;28;19980;-86
2022/10/02 02:25:24;;;;;;;;;;;;;;;19.83;67.08;100165.78;5094710;28;19926;-88
2022/10/02 02:27:51;;;;;;;;;;;;;;;19.94;66.55;100140.38;5085653;28;19920;-86
2022/10/02 02:30:17;;;;;;;;;;;;;;;20.03;66.19;100133.53;5079221;28;20332;-86
2022/10/02 02:32:44;;;;;;;;;;;;;;;20.05;66.29;100119.66;5094331;28;19977;-87
2022/10/02 02:35:14;;;;;;;;;;;;;;;20.12;65.86;100093.06;5094282;28;19924;-87
2022/10/02 02:37:39;;;;;;;;;;;;;;;20.13;65.63;100077.53;5075988;28;19930;-87
2022/10/02 02:40:08;;;;;;;;;;;;;;;20.12;65.66;100049.41;5078511;28;19916;-86
2022/10/02 02:42:40;;;;;;;;;;;;;;;20.06;66.02;100041.34;5087800;28;19959;-84
2022/10/02 02:45:11;;;;;;;;;;;;;;;19.99;66.12;100069.59;5071159;28;20304;-86
2022/10/02 02:47:47;;;;;;;;;;;;;;;20.04;66.01;100057.94;5081576;28;19966;-86
2022/10/02 02:50:15;;;;;;;;;;;;;;;20.08;66.03;100039.22;5094995;28;19938;-87
2022/10/02 02:52:42;;;;;;;;;;;;;;;19.91;66.61;100047.28;5083665;28;20051;-87
2022/10/02 02:55:14;;;;;;;;;;;;;;;19.71;67.27;100053.91;5095045;28;19961;-86
2022/10/02 02:57:42;;;;;;;;;;;;;;;19.75;67.32;100070.66;5057744;28;19991;-88
2022/10/02 03:00:08;;;;;;;;;;;;;;;19.74;67.53;100097.09;5078727;28;19923;-86
2022/10/02 03:02:33;;;;;;;;;;;;;;;19.51;68.01;100119.66;5076974;28;19923;-87
2022/10/02 03:04:58;;;;;;;;;;;;;;;19.42;69.25;100148.31;5101437;28;19991;-86
2022/10/02 03:07:23;;;;;;;;;;;;;;;19.30;70.21;100170.06;5085047;28;19946;-86
2022/10/02 03:10:21;;;;;;;;;;;;;;;19.26;70.87;100171.56;5098646;28;20025;-86
2022/10/02 03:12:46;;;;;;;;;;;;;;;19.10;71.56;100181.22;5059435;28;19920;-87
2022/10/02 03:15:14;;;;;;;;;;;;;;;19.12;71.25;100183.72;5076885;28;19966;-86
2022/10/02 03:18:00;;;;;;;;;;;;;;;18.89;72.03;100177.06;5075599;28;19969;-86
2022/10/02 03:20:25;;;;;;;;;;;;;;;19.08;71.40;100175.19;5088684;28;19973;-86
2022/10/02 03:23:11;;;;;;;;;;;;;;;18.99;71.90;100160.22;5077579;28;20472;-87
2022/10/02 03:25:58;;;;;;;;;;;;;;;18.83;72.74;100160.81;5080013;28;19921;-87
2022/10/02 03:28:26;;;;;;;;;;;;;;;18.88;72.51;100166.41;5082880;28;19931;-86
2022/10/02 03:30:51;;;;;;;;;;;;;;;18.90;72.25;100173.28;5055469;28;19921;-87
2022/10/02 03:33:17;;;;;;;;;;;;;;;18.88;72.64;100180.84;5088610;28;20376;-87
2022/10/02 03:35:42;;;;;;;;;;;;;;;18.74;73.06;100171.97;5073936;28;20485;-86
2022/10/02 03:38:08;;;;;;;;;;;;;;;18.76;73.14;100166.31;5075201;28;19920;-87
2022/10/02 03:40:34;;;;;;;;;;;;;;;18.64;73.89;100166.22;5093451;28;20375;-86
2022/10/02 03:42:59;;;;;;;;;;;;;;;18.79;73.20;100168.59;5095820;28;19942;-87
2022/10/02 03:45:25;;;;;;;;;;;;;;;18.80;73.33;100166.69;5104887;28;19916;-86
2022/10/02 03:47:50;;;;;;;;;;;;;;;18.77;73.50;100168.00;5104902;28;19981;-86
2022/10/02 03:50:15;;;;;;;;;;;;;;;18.85;73.17;100169.59;5104536;28;19919;-86
2022/10/02 03:52:41;;;;;;;;;;;;;;;18.81;73.47;100196.44;5069150;28;20368;-86
2022/10/02 03:55:25;;;;;;;;;;;;;;;18.74;73.71;100207.38;5095277;28;19925;-86
2022/10/02 03:57:50;;;;;;;;;;;;;;;18.74;73.79;100212.00;5070222;28;19928;-85
2022/10/02 04:00:18;;;;;;;;;;;;;;;18.66;74.20;100221.28;5079668;28;19923;-86
2022/10/02 04:02:52;;;;;;;;;;;;;;;18.65;74.29;100227.78;5075709;28;19924;-86
2022/10/02 04:05:27;;;;;;;;;;;;;;;18.65;74.02;100249.56;5077103;28;19923;-86
2022/10/02 04:08:01;;;;;;;;;;;;;;;18.69;74.21;100267.13;5058685;28;21777;-86
2022/10/02 04:10:31;;;;;;;;;;;;;;;18.73;73.75;100279.25;5076483;28;19916;-87
2022/10/02 04:13:01;;;;;;;;;;;;;;;18.75;74.00;100281.72;5075684;28;19924;-86
2022/10/02 04:15:53;;;;;;;;;;;;;;;18.74;73.83;100288.22;5056728;28;19976;-87
2022/10/02 04:18:42;;;;;;;;;;;;;;;18.66;74.17;100275.75;5087412;28;19935;-85
2022/10/02 04:21:26;;;;;;;;;;;;;;;18.69;74.36;100258.94;5080713;28;19917;-87
2022/10/02 04:23:52;;;;;;;;;;;;;;;18.74;74.30;100250.94;5093183;28;20311;-86
2022/10/02 04:26:36;;;;;;;;;;;;;;;18.79;74.20;100238.56;5075764;28;19912;-87
2022/10/02 04:29:18;;;;;;;;;;;;;;;18.79;74.32;100233.13;5053369;28;19916;-86
2022/10/02 04:31:45;;;;;;;;;;;;;;;18.68;74.76;100234.66;5076030;28;19961;-86
2022/10/02 04:34:11;;;;;;;;;;;;;;;18.71;74.50;100228.78;5076328;28;19916;-86
2022/10/02 04:36:42;;;;;;;;;;;;;;;18.66;75.01;100234.03;5094051;28;19916;-87
2022/10/02 04:39:19;;;;;;;;;;;;;;;18.66;74.73;100234.03;5092629;28;19923;-87
2022/10/02 04:41:47;;;;;;;;;;;;;;;18.66;75.02;100247.66;5093106;28;19916;-87
2022/10/02 04:44:31;;;;;;;;;;;;;;;18.61;74.82;100248.34;5106664;28;19951;-86
2022/10/02 04:47:11;;;;;;;;;;;;;;;18.60;75.16;100249.41;5105965;28;19938;-87
2022/10/02 04:49:43;;;;;;;;;;;;;;;18.66;74.94;100251.25;5072965;28;19946;-86
2022/10/02 04:52:27;;;;;;;;;;;;;;;18.82;74.23;100254.44;5092507;28;19969;-87
2022/10/02 04:54:52;;;;;;;;;;;;;;;18.85;74.17;100256.75;5090875;28;19920;-86
2022/10/02 04:57:47;;;;;;;;;;;;;;;18.87;74.14;100266.34;5092927;28;19926;-86
2022/10/02 05:00:12;;;;;;;;;;;;;;;18.98;73.58;100267.47;5068019;28;19917;-86
2022/10/02 05:02:47;;;;;;;;;;;;;;;19.02;73.32;100282.31;5074453;28;20006;-87
2022/10/02 05:05:19;;;;;;;;;;;;;;;19.06;73.19;100274.53;5075560;28;20321;-87
2022/10/02 05:08:03;;;;;;;;;;;;;;;19.11;73.09;100289.16;5074865;28;19920;-87
2022/10/02 05:10:28;;;;;;;;;;;;;;;19.13;72.96;100292.47;5070013;28;20354;-86
2022/10/02 05:13:00;;;;;;;;;;;;;;;19.22;72.65;100290.28;5064958;28;19920;-87
2022/10/02 05:15:34;;;;;;;;;;;;;;;19.44;71.96;100282.47;5092827;28;19999;-87
2022/10/02 05:18:00;;;;;;;;;;;;;;;19.51;71.64;100276.94;5076698;28;19924;-86
2022/10/02 05:20:25;;;;;;;;;;;;;;;19.58;71.13;100273.06;5094847;28;19924;-85
2022/10/02 05:22:53;;;;;;;;;;;;;;;19.54;71.38;100271.84;5092645;28;20407;-87
2022/10/02 05:25:23;;;;;;;;;;;;;;;19.63;70.92;100268.84;5093974;28;19912;-85
2022/10/02 05:28:07;;;;;;;;;;;;;;;19.56;71.43;100269.75;5075215;28;19927;-88
2022/10/02 05:30:37;;;;;;;;;;;;;;;19.59;71.22;100273.91;5088480;28;19916;-90
2022/10/02 05:33:21;;;;;;;;;;;;;;;19.55;71.68;100265.34;5092481;28;19920;-87
2022/10/02 05:35:59;;;;;;;;;;;;;;;19.41;71.97;100263.88;5090304;28;20061;-87
2022/10/02 05:38:40;;;;;;;;;;;;;;;19.41;71.78;100255.69;5074727;28;20002;-86
2022/10/02 05:41:14;;;;;;;;;;;;;;;19.44;71.74;100254.41;5092118;28;19920;-88
2022/10/02 05:43:40;;;;;;;;;;;;;;;19.39;71.48;100246.91;5090600;28;19935;-87
2022/10/02 05:46:08;;;;;;;;;;;;;;;19.31;72.55;100239.84;5093527;28;20374;-85
2022/10/02 05:48:37;;;;;;;;;;;;;;;19.30;72.13;100254.56;5094604;28;20356;-87
2022/10/02 05:51:09;;;;;;;;;;;;;;;19.30;72.05;100245.56;5076937;28;19920;-87
2022/10/02 05:53:36;;;;;;;;;;;;;;;19.21;72.13;100245.00;5073815;28;19916;-87
2022/10/02 05:56:04;;;;;;;;;;;;;;;19.27;69.67;100251.44;5074261;28;20010;-87
2022/10/02 05:58:30;;;;;;;;;;;;;;;19.12;70.40;100254.56;5074523;28;19920;-88
2022/10/02 06:00:55;;;;;;;;;;;;;;;19.12;70.51;100236.31;5073588;28;20394;-87
2022/10/02 06:03:25;;;;;;;;;;;;;;;19.07;70.81;100249.78;5092480;28;19924;-87
2022/10/02 06:06:01;;;;;;;;;;;;;;;19.02;71.21;100230.56;5075213;28;19917;-87
2022/10/02 06:08:40;;;;;;;;;;;;;;;18.93;70.20;100237.38;5075295;28;19926;-86
2022/10/02 06:11:31;;;;;;;;;;;;;;;18.99;70.27;100236.47;5074058;28;19916;-88
2022/10/02 06:13:58;;;;;;;;;;;;;;;19.09;69.66;100231.31;5060788;28;20391;-87
2022/10/02 06:16:39;;;;;;;;;;;;;;;18.96;69.47;100224.16;5077034;28;20019;-87
2022/10/02 06:19:14;;;;;;;;;;;;;;;18.93;68.94;100221.03;5072879;28;19966;-89
2022/10/02 06:21:44;;;;;;;;;;;;;;;18.93;68.74;100226.47;5091150;28;19947;-88
2022/10/02 06:24:11;;;;;;;;;;;;;;;18.84;68.05;100217.75;5070908;28;19924;-87
2022/10/02 06:26:44;;;;;;;;;;;;;;;18.77;68.27;100217.84;5077390;28;19916;-88
2022/10/02 06:29:16;;;;;;;;;;;;;;;18.87;68.34;100214.59;5078855;28;19919;-86
2022/10/02 06:31:49;;;;;;;;;;;;;;;18.89;68.06;100214.38;5062436;28;19920;-87
2022/10/02 06:34:15;;;;;;;;;;;;;;;18.87;67.48;100227.38;5077816;28;19939;-87
2022/10/02 06:36:44;;;;;;;;;;;;;;;18.88;67.15;100218.97;5094856;28;20387;-87
2022/10/02 06:39:30;;;;;;;;;;;;;;;19.04;66.81;100217.56;5076729;28;19916;-87
2022/10/02 06:42:11;;;;;;;;;;;;;;;18.87;67.04;100211.03;5095507;28;19952;-89
2022/10/02 06:44:55;;;;;;;;;;;;;;;18.92;67.27;100228.38;5073565;28;20383;-86
2022/10/02 06:47:24;;;;;;;;;;;;;;;18.88;67.50;100234.50;5094276;28;19938;-87
2022/10/02 06:50:09;;;;;;;;;;;;;;;19.00;67.52;100240.84;5078950;28;20007;-88
2022/10/02 06:52:43;;;;;;;;;;;;;;;18.80;67.54;100226.59;5094701;28;19924;-87
2022/10/02 06:55:27;;;;;;;;;;;;;;;18.79;68.31;100230.41;5068910;28;19920;-87
2022/10/02 06:58:12;;;;;;;;;;;;;;;18.75;68.25;100243.59;5097708;28;19920;-88
2022/10/02 07:00:44;;;;;;;;;;;;;;;18.70;67.79;100232.53;5065116;28;19947;-86
2022/10/02 07:03:15;;;;;;;;;;;;;;;18.57;67.95;100230.81;5088147;28;19955;-86
2022/10/02 07:05:52;;;;;;;;;;;;;;;18.60;67.53;100227.63;5100308;28;20428;-87
2022/10/02 07:08:26;;;;;;;;;;;;;;;18.59;67.09;100222.38;5099959;28;19931;-87
2022/10/02 07:11:02;;;;;;;;;;;;;;;18.58;67.00;100221.56;5107422;28;19916;-87
2022/10/02 07:13:45;;;;;;;;;;;;;;;18.61;66.75;100206.66;5086647;28;19958;-86
2022/10/02 07:16:11;;;;;;;;;;;;;;;18.63;66.67;100208.09;5100438;28;20014;-87
2022/10/02 07:18:41;;;;;;;;;;;;;;;18.74;66.22;100212.00;5094238;28;20380;-87
2022/10/02 07:21:09;;;;;;;;;;;;;;;18.95;65.22;100213.47;5056518;28;19917;-87
2022/10/02 07:23:38;;;;;;;;;;;;;;;19.08;64.75;100221.50;5092714;28;19927;-87
2022/10/02 07:26:03;;;;;;;;;;;;;;;19.22;63.89;100211.25;5093731;28;20007;-87
2022/10/02 07:28:44;;;;;;;;;;;;;;;19.24;63.46;100217.31;5092739;28;20351;-86
2022/10/02 07:31:19;;;;;;;;;;;;;;;19.37;62.85;100216.31;5093084;28;19972;-89
2022/10/02 07:33:44;;;;;;;;;;;;;;;19.34;62.41;100214.88;5074921;28;20037;-88
2022/10/02 07:36:32;;;;;;;;;;;;;;;19.44;62.31;100219.78;5092867;28;19920;-88
2022/10/02 07:39:07;;;;;;;;;;;;;;;19.78;60.42;100221.03;5076590;28;19927;-86
2022/10/02 07:41:32;;;;;;;;;;;;;;;19.92;59.78;100216.19;5098566;28;19939;-87
2022/10/02 07:44:16;;;;;;;;;;;;;;;20.26;59.05;100191.94;5095173;28;19935;-87
2022/10/02 07:46:48;;;;;;;;;;;;;;;20.35;58.85;100225.19;5102590;28;19920;-87
2022/10/02 07:49:13;;;;;;;;;;;;;;;20.42;58.15;100229.44;5105772;28;19920;-87
2022/10/02 07:51:49;;;;;;;;;;;;;;;20.61;57.53;100232.94;5081366;28;20399;-87
2022/10/02 07:54:20;;;;;;;;;;;;;;;20.79;56.82;100228.38;5082434;28;19920;-87
2022/10/02 07:56:46;;;;;;;;;;;;;;;20.78;56.74;100232.22;5100181;28;19942;-87
2022/10/02 07:59:11;;;;;;;;;;;;;;;20.86;55.95;100246.34;5059624;28;20435;-87
2022/10/02 08:01:37;;;;;;;;;;;;;;;20.65;56.58;100233.28;5070657;28;19997;-88
2022/10/02 08:04:03;;;;;;;;;;;;;;;20.82;55.87;100236.13;5074850;28;20018;-87
2022/10/02 08:06:29;;;;;;;;;;;;;;;20.67;56.01;100242.06;5093424;28;19916;-87
2022/10/02 08:08:59;;;;;;;;;;;;;;;20.82;55.59;100234.22;5074162;28;19916;-89
2022/10/02 08:11:29;;;;;;;;;;;;;;;20.86;55.49;100234.56;5073272;28;19947;-88
2022/10/02 08:14:11;;;;;;;;;;;;;;;20.98;55.01;100237.31;5075859;28;19916;-86
2022/10/02 08:16:37;;;;;;;;;;;;;;;21.27;54.03;100247.22;5074423;28;19920;-88
2022/10/02 08:19:05;;;;;;;;;;;;;;;21.18;54.05;100243.19;5092122;28;19987;-88
2022/10/02 08:21:31;;;;;;;;;;;;;;;21.91;52.20;100252.59;5075188;28;19927;-87
2022/10/02 08:24:01;;;;;;;;;;;;;;;22.30;50.59;100230.03;5074803;28;19987;-87
2022/10/02 08:26:33;;;;;;;;;;;;;;;22.73;49.57;100248.50;5075277;28;20021;-86
2022/10/02 08:29:10;;;;;;;;;;;;;;;25.29;43.19;100239.22;5074293;28;20307;-88
2022/10/02 08:31:36;;;;;;;;;;;;;;;27.19;38.97;100236.56;5094006;28;19920;-89
2022/10/02 08:34:12;;;;;;;;;;;;;;;27.18;38.75;100238.47;5074550;28;19927;-89
2022/10/02 08:36:43;;;;;;;;;;;;;;;27.97;37.11;100247.75;5093954;28;19924;-88
2022/10/02 08:39:27;;;;;;;;;;;;;;;26.11;39.99;100251.28;5080685;28;19920;-87
2022/10/02 08:42:27;;;;;;;;;;;;;;;25.33;41.81;100265.09;5092322;28;20303;-87
2022/10/02 08:45:01;;;;;;;;;;;;;;;24.60;43.50;100251.16;5013842;28;19988;-87
2022/10/02 08:47:33;;;;;;;;;;;;;;;24.55;43.42;100251.97;5052095;28;19923;-87
2022/10/02 08:50:01;;;;;;;;;;;;;;;24.23;43.88;100250.03;5092098;28;19920;-87
2022/10/02 08:52:35;;;;;;;;;;;;;;;24.36;43.91;100251.50;5073897;28;20395;-88
2022/10/02 08:55:19;;;;;;;;;;;;;;;23.87;43.29;100256.28;5093838;28;19926;-87
2022/10/02 08:58:00;;;;;;;;;;;;;;;24.12;42.59;100262.03;5091500;28;19931;-88
2022/10/02 09:00:40;;;;;;;;;;;;;;;23.86;42.43;100265.59;5086159;28;19938;-87
2022/10/02 09:03:06;;;;;;;;;;;;;;;23.77;42.59;100257.00;5091233;28;19975;-89
2022/10/02 09:05:32;;;;;;;;;;;;;;;23.66;42.94;100283.47;5073735;28;20360;-86
2022/10/02 09:08:07;;;;;;;;;;;;;;;23.47;43.20;100282.97;5091603;28;19916;-86
2022/10/02 09:10:52;;;;;;;;;;;;;;;23.07;44.35;100280.53;5074235;28;19916;-87
2022/10/02 09:13:37;;;;;;;;;;;;;;;23.13;44.41;100269.38;5091121;28;19920;-89
2022/10/02 09:16:08;;;;;;;;;;;;;;;22.86;45.46;100266.50;5091357;28;19951;-88
2022/10/02 09:19:03;;;;;;;;;;;;;;;22.68;45.82;100275.81;5085260;28;20007;-88
2022/10/02 09:21:47;;;;;;;;;;;;;;;22.67;45.61;100282.38;5030308;28;19952;-88
2022/10/02 09:24:21;;;;;;;;;;;;;;;22.83;45.12;100268.91;5091170;28;19931;-87
2022/10/02 09:26:59;;;;;;;;;;;;;;;23.05;44.80;100282.69;5092101;28;19916;-87
2022/10/02 09:29:26;;;;;;;;;;;;;;;23.50;43.64;100268.72;5073663;28;19920;-88
2022/10/02 09:32:04;;;;;;;;;;;;;;;23.89;43.10;100290.63;5090679;28;19927;-87
2022/10/02 09:34:49;;;;;;;;;;;;;;;24.32;41.09;100279.75;5063778;28;20505;-88
2022/10/02 09:37:19;;;;;;;;;;;;;;;26.00;38.08;100290.13;5090597;28;19923;-87
2022/10/02 09:40:03;;;;;;;;;;;;;;;27.17;35.04;100280.97;5073776;28;19912;-87
2022/10/02 09:42:47;;;;;;;;;;;;;;;29.51;30.79;100290.59;5077568;28;19999;-89
2022/10/02 09:45:19;;;;;;;;;;;;;;;30.99;28.46;100297.78;5085598;28;19917;-87
2022/10/02 09:48:04;;;;;;;;;;;;;;;32.09;26.21;100294.13;5091600;28;20388;-88
2022/10/02 09:50:54;;;;;;;;;;;;;;;32.54;25.23;100289.38;5091068;28;19946;-87
2022/10/02 09:53:19;;;;;;;;;;;;;;;32.87;24.71;100297.44;5073404;28;19924;-87
2022/10/02 09:55:58;;;;;;;;;;;;;;;33.62;23.89;100255.81;5075537;28;19942;-88
2022/10/02 09:58:29;;;;;;;;;;;;;;;31.40;26.11;100288.63;5069850;28;20066;-88
2022/10/02 10:01:00;;;;;;;;;;;;;;;30.60;27.16;100290.66;5094618;28;20414;-87
2022/10/02 10:03:45;;;;;;;;;;;;;;;31.29;26.07;100286.06;5076485;28;19963;-89
2022/10/02 10:06:10;;;;;;;;;;;;;;;31.24;25.93;100288.94;5063063;28;19969;-88
2022/10/02 10:08:50;;;;;;;;;;;;;;;31.39;25.53;100284.22;5099105;28;19924;-87
2022/10/02 10:11:22;;;;;;;;;;;;;;;29.47;27.89;100306.13;5078244;28;19916;-87
2022/10/02 10:13:59;;;;;;;;;;;;;;;28.98;29.12;100293.38;5095659;28;19920;-87
2022/10/02 10:16:43;;;;;;;;;;;;;;;28.36;29.99;100299.44;5091536;28;19923;-87
2022/10/02 10:19:15;;;;;;;;;;;;;;;28.98;29.30;100282.31;5095678;28;19924;-88
2022/10/02 10:21:40;;;;;;;;;;;;;;;29.82;27.82;100291.00;5077525;28;19960;-88
2022/10/02 10:24:05;;;;;;;;;;;;;;;30.65;25.92;100307.25;5076657;28;19963;-88
2022/10/02 10:26:33;;;;;;;;;;;;;;;31.75;24.68;100301.78;5094229;28;19990;-87
2022/10/02 10:29:06;;;;;;;;;;;;;;;31.42;24.94;100323.34;5093051;28;19924;-87
2022/10/02 10:31:50;;;;;;;;;;;;;;;32.49;24.15;100303.41;5077682;28;19920;-86
2022/10/02 10:34:24;;;;;;;;;;;;;;;31.26;25.48;100319.19;5109454;28;19920;-88
2022/10/02 10:39:55;;;;;;;;;;;;;;;31.26;25.25;100330.31;5111007;28;19969;-87
2022/10/02 10:42:33;;;;;;;;;;;;;;;32.64;22.80;100302.25;5107868;28;19924;-87
2022/10/02 10:45:07;;;;;;;;;;;;;;;32.51;22.85;100334.56;5102596;28;19956;-88
2022/10/02 10:47:37;;;;;;;;;;;;;;;33.04;22.63;100312.59;5065640;28;20388;-87
2022/10/02 10:50:23;;;;;;;;;;;;;;;33.03;22.24;100325.69;5075796;28;19920;-88
2022/10/02 10:53:02;;;;;;;;;;;;;;;33.54;21.37;100327.06;5097124;28;19920;-87
2022/10/02 10:55:42;;;;;;;;;;;;;;;30.60;24.69;100352.53;5069343;28;19927;-88
2022/10/02 10:58:08;;;;;;;;;;;;;;;28.33;27.84;100344.25;5074890;28;19963;-87
2022/10/02 11:00:40;;;;;;;;;;;;;;;26.97;30.21;100350.81;5075803;28;19955;-88
2022/10/02 11:03:17;;;;;;;;;;;;;;;27.90;29.96;100346.72;5074894;28;19967;-87
2022/10/02 11:05:49;;;;;;;;;;;;;;;26.35;31.62;100360.16;5094316;28;19958;-87
2022/10/02 11:08:26;;;;;;;;;;;;;;;25.73;32.96;100353.59;5093646;28;20444;-87
2022/10/02 11:11:10;;;;;;;;;;;;;;;25.34;33.69;100351.22;5076134;28;20010;-89
2022/10/02 11:13:45;;;;;;;;;;;;;;;25.68;33.08;100357.16;5078511;28;20381;-87
2022/10/02 11:16:25;;;;;;;;;;;;;;;27.52;30.87;100351.00;5112165;28;19912;-86
2022/10/02 11:18:50;;;;;;;;;;;;;;;27.87;29.97;100352.81;5104368;28;19960;-87
2022/10/02 11:21:45;;;;;;;;;;;;;;;28.23;28.73;100337.97;5094547;28;19939;-88
2022/10/02 11:24:29;;;;;;;;;;;;;;;28.75;28.56;100339.25;5080064;28;19942;-88
2022/10/02 11:27:13;;;;;;;;;;;;;;;29.29;27.54;100327.13;5094693;28;19916;-88
2022/10/02 11:29:41;;;;;;;;;;;;;;;30.11;26.24;100337.19;5070992;28;19926;-88
2022/10/02 11:32:13;;;;;;;;;;;;;;;30.37;25.84;100329.31;5074597;28;20006;-89
2022/10/02 11:34:39;;;;;;;;;;;;;;;30.68;25.06;100337.97;5093468;28;19959;-88
2022/10/02 11:37:23;;;;;;;;;;;;;;;30.76;25.07;100339.22;5093166;28;20014;-88
2022/10/02 11:39:58;;;;;;;;;;;;;;;30.55;25.36;100337.91;5067205;28;19931;-88
2022/10/02 11:42:50;;;;;;;;;;;;;;;30.42;25.68;100350.59;5092369;28;19920;-88
2022/10/02 11:45:24;;;;;;;;;;;;;;;29.46;27.08;100332.19;5084471;28;19920;-88
2022/10/02 11:47:50;;;;;;;;;;;;;;;28.64;27.87;100332.16;5092801;28;20035;-89
2022/10/02 11:50:34;;;;;;;;;;;;;;;28.23;28.87;100349.84;5093262;28;20324;-89
2022/10/02 11:53:02;;;;;;;;;;;;;;;27.76;29.82;100345.66;5099157;28;19970;-88
2022/10/02 11:55:30;;;;;;;;;;;;;;;27.40;30.25;100347.72;5095188;28;20335;-88
2022/10/02 11:58:03;;;;;;;;;;;;;;;27.70;29.86;100357.84;5056148;28;19970;-88
2022/10/02 12:00:42;;;;;;;;;;;;;;;27.17;30.50;100342.50;5093348;28;20309;-89
2022/10/02 12:03:11;;;;;;;;;;;;;;;26.40;31.60;100371.19;5096264;28;19961;-89
2022/10/02 12:05:36;;;;;;;;;;;;;;;25.94;32.48;100363.63;5077930;28;19961;-86
2022/10/02 12:08:37;;;;;;;;;;;;;;;26.28;32.25;100383.28;5094187;28;19916;-88
2022/10/02 12:11:32;;;;;;;;;;;;;;;25.76;33.11;100370.41;5010248;28;20023;-86
2022/10/02 12:14:00;;;;;;;;;;;;;;;25.34;33.56;100382.31;5037563;28;20004;-88
2022/10/02 12:16:35;;;;;;;;;;;;;;;25.11;34.45;100379.94;5097440;28;19912;-88
2022/10/02 12:19:00;;;;;;;;;;;;;;;25.38;33.82;100383.44;5092978;28;19920;-87
2022/10/02 12:27:14;;;;;;;;;;;;;;;24.78;34.78;100382.69;5108832;28;19953;-85
2022/10/02 12:29:55;;;;;;;;;;;;;;;25.04;34.31;100389.22;5108192;28;19919;-86
2022/10/02 12:32:36;;;;;;;;;;;;;;;24.79;34.31;100378.03;5090666;28;19916;-87
2022/10/02 12:35:05;;;;;;;;;;;;;;;24.75;34.25;100391.47;5094754;28;19931;-86
2022/10/02 12:37:41;;;;;;;;;;;;;;;24.78;34.44;100392.88;5075516;28;19912;-88
2022/10/02 12:40:16;;;;;;;;;;;;;;;24.40;34.53;100394.69;5075622;28;19915;-88
2022/10/02 12:43:00;;;;;;;;;;;;;;;24.35;34.57;100409.19;5093621;28;19974;-87
2022/10/02 12:45:43;;;;;;;;;;;;;;;24.18;34.18;100384.56;5065875;28;19924;-88
2022/10/02 12:48:26;;;;;;;;;;;;;;;24.55;33.64;100399.53;5074577;28;19939;-87
2022/10/02 12:51:04;;;;;;;;;;;;;;;24.74;33.68;100400.81;5073619;28;20409;-87
2022/10/02 12:53:48;;;;;;;;;;;;;;;24.86;33.14;100408.88;5095341;28;19916;-87
2022/10/02 12:56:32;;;;;;;;;;;;;;;24.72;33.40;100410.41;5092062;28;19920;-88
2022/10/02 12:59:09;;;;;;;;;;;;;;;24.41;33.22;100405.41;5091562;28;19927;-87
2022/10/02 13:01:37;;;;;;;;;;;;;;;24.34;33.39;100414.94;5072922;28;20354;-88
2022/10/02 13:04:17;;;;;;;;;;;;;;;24.18;33.30;100412.00;5090971;28;19956;-87
2022/10/02 13:06:48;;;;;;;;;;;;;;;24.28;33.26;100402.22;5073596;28;20406;-86
2022/10/02 13:09:16;;;;;;;;;;;;;;;24.01;33.14;100414.84;5073292;28;20383;-87
2022/10/02 13:11:51;;;;;;;;;;;;;;;23.84;33.88;100416.84;5093586;28;19931;-88
2022/10/02 13:14:28;;;;;;;;;;;;;;;23.80;33.85;100424.75;5079477;28;20411;-86
2022/10/02 13:17:12;;;;;;;;;;;;;;;23.77;33.96;100406.03;5093016;28;19916;-87